sensor_id;sensor_type;location;lat;lon;timestamp;temperature;humidity
14775;DHT22;7479;47.042;15.160;2023-05-31T05:54:38;14.80;99.90
14775;DHT22;7479;47.042;15.160;2023-05-31T05:59:33;15.20;99.90
14775;DHT22;7479;47.042;15.160;2023-05-31T06:04:39;15.70;99.90
14775;DHT22;7479;47.042;15.160;2023-05-31T06:09:34;15.90;99.90
14775;DHT22;7479;47.042;15.160;2023-05-31T06:14:29;16.20;99.90
14775;DHT22;7479;47.042;15.160;2023-05-31T06:19:22;16.50;99.90
14775;DHT22;7479;47.042;15.160;2023-05-31T06:24:17;16.90;99.90
14775;DHT22;7479;47.042;15.160;2023-05-31T06:29:12;17.10;99.90
14775;DHT22;7479;47.042;15.160;2023-05-31T06:34:33;17.20;99.90
14775;DHT22;7479;47.042;15.160;2023-05-31T06:39:27;17.40;99.90
14775;DHT22;7479;47.042;15.160;2023-05-31T06:44:20;17.50;99.90
14775;DHT22;7479;47.042;15.160;2023-05-31T06:49:23;17.70;99.90
14775;DHT22;7479;47.042;15.160;2023-05-31T06:54:34;17.80;99.90
14775;DHT22;7479;47.042;15.160;2023-05-31T06:59:28;18.00;99.90
14775;DHT22;7479;47.042;15.160;2023-05-31T07:04:22;18.10;99.90
14775;DHT22;7479;47.042;15.160;2023-05-31T07:09:16;18.10;99.30
14775;DHT22;7479;47.042;15.160;2023-05-31T07:14:22;18.40;98.90
14775;DHT22;7479;47.042;15.160;2023-05-31T07:19:16;18.70;98.90
14775;DHT22;7479;47.042;15.160;2023-05-31T07:24:10;19.00;98.00
14775;DHT22;7479;47.042;15.160;2023-05-31T07:29:03;19.10;97.80
14775;DHT22;7479;47.042;15.160;2023-05-31T07:33:58;19.10;97.20
14775;DHT22;7479;47.042;15.160;2023-05-31T07:38:52;19.10;96.60
14775;DHT22;7479;47.042;15.160;2023-05-31T07:43:45;19.30;96.90
14775;DHT22;7479;47.042;15.160;2023-05-31T07:48:39;19.60;95.50
14775;DHT22;7479;47.042;15.160;2023-05-31T07:53:34;19.90;96.10
14775;DHT22;7479;47.042;15.160;2023-05-31T07:58:28;20.50;95.90
14775;DHT22;7479;47.042;15.160;2023-05-31T08:03:21;20.80;94.10
14775;DHT22;7479;47.042;15.160;2023-05-31T08:08:15;20.90;92.90
14775;DHT22;7479;47.042;15.160;2023-05-31T08:13:10;21.40;89.20
14775;DHT22;7479;47.042;15.160;2023-05-31T08:18:04;21.80;88.40
14775;DHT22;7479;47.042;15.160;2023-05-31T08:22:58;21.80;89.40
14775;DHT22;7479;47.042;15.160;2023-05-31T08:27:51;21.60;89.00
14775;DHT22;7479;47.042;15.160;2023-05-31T08:32:46;21.60;90.40
14775;DHT22;7479;47.042;15.160;2023-05-31T08:37:39;21.70;90.90
14775;DHT22;7479;47.042;15.160;2023-05-31T08:42:39;21.80;90.20
14775;DHT22;7479;47.042;15.160;2023-05-31T08:47:38;21.80;90.30
14775;DHT22;7479;47.042;15.160;2023-05-31T08:52:34;21.90;90.40
14775;DHT22;7479;47.042;15.160;2023-05-31T08:57:28;22.20;90.50
14775;DHT22;7479;47.042;15.160;2023-05-31T09:02:23;22.30;90.10
14775;DHT22;7479;47.042;15.160;2023-05-31T09:07:18;22.70;90.50
14775;DHT22;7479;47.042;15.160;2023-05-31T09:12:13;23.10;89.20
14775;DHT22;7479;47.042;15.160;2023-05-31T09:17:08;23.50;89.20
14775;DHT22;7479;47.042;15.160;2023-05-31T09:22:03;23.60;89.50
14775;DHT22;7479;47.042;15.160;2023-05-31T09:26:57;23.50;89.90
14775;DHT22;7479;47.042;15.160;2023-05-31T09:32:09;23.50;88.10
14775;DHT22;7479;47.042;15.160;2023-05-31T09:37:03;23.30;90.20
14775;DHT22;7479;47.042;15.160;2023-05-31T09:41:57;23.20;89.50
14775;DHT22;7479;47.042;15.160;2023-05-31T09:46:52;23.10;90.00
14775;DHT22;7479;47.042;15.160;2023-05-31T09:51:51;23.10;90.10
14775;DHT22;7479;47.042;15.160;2023-05-31T09:56:45;23.10;90.50
14775;DHT22;7479;47.042;15.160;2023-05-31T10:01:38;23.30;90.70
14775;DHT22;7479;47.042;15.160;2023-05-31T10:06:33;24.20;88.60
14775;DHT22;7479;47.042;15.160;2023-05-31T10:11:33;25.00;87.90
14775;DHT22;7479;47.042;15.160;2023-05-31T10:16:30;25.10;86.00
14775;DHT22;7479;47.042;15.160;2023-05-31T10:21:26;24.80;84.50
14775;DHT22;7479;47.042;15.160;2023-05-31T10:26:22;24.60;85.30
14775;DHT22;7479;47.042;15.160;2023-05-31T10:31:23;24.70;85.10
14775;DHT22;7479;47.042;15.160;2023-05-31T10:36:19;24.60;85.80
14775;DHT22;7479;47.042;15.160;2023-05-31T10:41:16;24.70;86.20
14775;DHT22;7479;47.042;15.160;2023-05-31T10:46:24;24.80;86.10
14775;DHT22;7479;47.042;15.160;2023-05-31T10:51:18;25.00;85.30
14775;DHT22;7479;47.042;15.160;2023-05-31T10:56:12;25.10;83.40
14775;DHT22;7479;47.042;15.160;2023-05-31T11:01:08;25.00;84.60
14775;DHT22;7479;47.042;15.160;2023-05-31T11:06:07;24.80;83.30
14775;DHT22;7479;47.042;15.160;2023-05-31T11:11:25;24.90;83.60
14775;DHT22;7479;47.042;15.160;2023-05-31T11:16:18;25.00;84.00
14775;DHT22;7479;47.042;15.160;2023-05-31T11:21:47;24.90;82.50
14775;DHT22;7479;47.042;15.160;2023-05-31T11:26:51;24.40;83.90
14775;DHT22;7479;47.042;15.160;2023-05-31T11:32:00;24.10;85.30
14775;DHT22;7479;47.042;15.160;2023-05-31T11:36:57;24.00;87.20
14775;DHT22;7479;47.042;15.160;2023-05-31T11:41:52;23.70;87.50
14775;DHT22;7479;47.042;15.160;2023-05-31T11:46:46;23.50;87.00
14775;DHT22;7479;47.042;15.160;2023-05-31T11:51:44;23.30;88.30
14775;DHT22;7479;47.042;15.160;2023-05-31T11:56:39;23.20;89.10
14775;DHT22;7479;47.042;15.160;2023-05-31T12:01:35;23.20;89.20
14775;DHT22;7479;47.042;15.160;2023-05-31T12:06:29;23.20;89.60
14775;DHT22;7479;47.042;15.160;2023-05-31T12:11:22;23.20;88.80
14775;DHT22;7479;47.042;15.160;2023-05-31T12:16:17;23.20;88.60
14775;DHT22;7479;47.042;15.160;2023-05-31T12:21:10;23.10;89.00
14775;DHT22;7479;47.042;15.160;2023-05-31T12:26:07;23.30;88.80
14775;DHT22;7479;47.042;15.160;2023-05-31T12:31:01;23.50;88.30
14775;DHT22;7479;47.042;15.160;2023-05-31T12:35:56;23.70;88.50
14775;DHT22;7479;47.042;15.160;2023-05-31T12:40:52;24.10;86.80
14775;DHT22;7479;47.042;15.160;2023-05-31T12:45:46;24.60;87.70
14775;DHT22;7479;47.042;15.160;2023-05-31T12:50:46;24.90;84.20
14775;DHT22;7479;47.042;15.160;2023-05-31T12:55:41;24.80;84.50
14775;DHT22;7479;47.042;15.160;2023-05-31T13:00:35;24.80;84.50
14775;DHT22;7479;47.042;15.160;2023-05-31T13:05:29;24.90;83.80
14775;DHT22;7479;47.042;15.160;2023-05-31T13:10:22;24.90;84.50
14775;DHT22;7479;47.042;15.160;2023-05-31T13:15:17;25.10;83.90
14775;DHT22;7479;47.042;15.160;2023-05-31T13:20:11;24.90;82.80
14775;DHT22;7479;47.042;15.160;2023-05-31T13:25:06;25.40;82.50
14775;DHT22;7479;47.042;15.160;2023-05-31T13:30:00;25.80;81.50
14775;DHT22;7479;47.042;15.160;2023-05-31T13:34:56;25.90;80.10
14775;DHT22;7479;47.042;15.160;2023-05-31T13:39:52;26.30;79.40
14775;DHT22;7479;47.042;15.160;2023-05-31T13:44:48;26.50;77.90
14775;DHT22;7479;47.042;15.160;2023-05-31T13:49:41;26.30;77.80
14775;DHT22;7479;47.042;15.160;2023-05-31T13:54:36;26.80;78.50
14775;DHT22;7479;47.042;15.160;2023-05-31T13:59:30;27.90;74.30
14775;DHT22;7479;47.042;15.160;2023-05-31T14:04:23;28.50;72.50
14775;DHT22;7479;47.042;15.160;2023-05-31T14:09:17;29.10;71.10
14775;DHT22;7479;47.042;15.160;2023-05-31T14:14:12;28.90;69.50
14775;DHT22;7479;47.042;15.160;2023-05-31T14:19:05;28.80;68.80
14775;DHT22;7479;47.042;15.160;2023-05-31T14:23:59;28.10;68.40
14775;DHT22;7479;47.042;15.160;2023-05-31T14:28:53;27.40;71.60
14775;DHT22;7479;47.042;15.160;2023-05-31T14:33:47;28.30;70.60
14775;DHT22;7479;47.042;15.160;2023-05-31T14:38:42;29.00;67.80
14775;DHT22;7479;47.042;15.160;2023-05-31T14:43:35;28.80;67.00
14775;DHT22;7479;47.042;15.160;2023-05-31T14:48:29;29.40;65.40
14775;DHT22;7479;47.042;15.160;2023-05-31T14:53:23;29.70;64.20
14775;DHT22;7479;47.042;15.160;2023-05-31T14:58:17;28.90;66.70
14775;DHT22;7479;47.042;15.160;2023-05-31T15:03:10;28.10;67.30
14775;DHT22;7479;47.042;15.160;2023-05-31T15:08:04;27.20;69.00
14775;DHT22;7479;47.042;15.160;2023-05-31T15:12:59;26.80;71.80
14775;DHT22;7479;47.042;15.160;2023-05-31T15:17:52;26.50;73.00
14775;DHT22;7479;47.042;15.160;2023-05-31T15:22:46;26.90;71.80
14775;DHT22;7479;47.042;15.160;2023-05-31T15:27:40;27.10;69.50
14775;DHT22;7479;47.042;15.160;2023-05-31T15:32:35;27.90;67.20
14775;DHT22;7479;47.042;15.160;2023-05-31T15:37:29;27.90;67.60
14775;DHT22;7479;47.042;15.160;2023-05-31T15:42:25;28.80;63.50
14775;DHT22;7479;47.042;15.160;2023-05-31T15:47:25;29.50;61.70
14775;DHT22;7479;47.042;15.160;2023-05-31T15:52:21;28.80;61.90
14775;DHT22;7479;47.042;15.160;2023-05-31T15:57:14;27.90;64.20
14775;DHT22;7479;47.042;15.160;2023-05-31T16:02:12;27.40;67.60
14775;DHT22;7479;47.042;15.160;2023-05-31T16:07:06;27.10;68.60
14775;DHT22;7479;47.042;15.160;2023-05-31T16:12:01;26.60;68.30
14775;DHT22;7479;47.042;15.160;2023-05-31T16:16:55;25.70;69.80
14775;DHT22;7479;47.042;15.160;2023-05-31T16:21:49;24.80;72.00
14775;DHT22;7479;47.042;15.160;2023-05-31T16:26:43;23.90;76.50
14775;DHT22;7479;47.042;15.160;2023-05-31T16:31:39;23.40;79.10
14775;DHT22;7479;47.042;15.160;2023-05-31T16:36:33;23.30;81.80
14775;DHT22;7479;47.042;15.160;2023-05-31T16:41:26;22.20;84.80
14775;DHT22;7479;47.042;15.160;2023-05-31T16:46:21;21.30;87.60
14775;DHT22;7479;47.042;15.160;2023-05-31T16:51:16;21.10;88.80
14775;DHT22;7479;47.042;15.160;2023-05-31T16:56:09;21.20;90.00
14775;DHT22;7479;47.042;15.160;2023-05-31T17:01:03;20.90;90.10
14775;DHT22;7479;47.042;15.160;2023-05-31T17:06:00;20.70;90.80
14775;DHT22;7479;47.042;15.160;2023-05-31T17:10:56;20.50;91.30
14775;DHT22;7479;47.042;15.160;2023-05-31T17:15:49;20.50;91.20
14775;DHT22;7479;47.042;15.160;2023-05-31T17:20:43;20.50;92.10
14775;DHT22;7479;47.042;15.160;2023-05-31T17:25:37;20.30;92.70
14775;DHT22;7479;47.042;15.160;2023-05-31T17:30:35;20.10;93.00
14775;DHT22;7479;47.042;15.160;2023-05-31T17:35:29;20.30;92.90
14775;DHT22;7479;47.042;15.160;2023-05-31T17:40:22;20.40;93.10
14775;DHT22;7479;47.042;15.160;2023-05-31T17:45:16;20.40;93.10
14775;DHT22;7479;47.042;15.160;2023-05-31T17:50:12;20.40;93.10
14775;DHT22;7479;47.042;15.160;2023-05-31T17:55:07;20.30;93.90
14775;DHT22;7479;47.042;15.160;2023-05-31T18:00:02;20.20;94.40
14775;DHT22;7479;47.042;15.160;2023-05-31T18:04:59;20.00;95.00
14775;DHT22;7479;47.042;15.160;2023-05-31T18:09:54;19.80;96.20
14775;DHT22;7479;47.042;15.160;2023-05-31T18:14:48;19.60;96.90
14775;DHT22;7479;47.042;15.160;2023-05-31T18:19:41;19.50;97.90
14775;DHT22;7479;47.042;15.160;2023-05-31T18:24:35;19.30;98.60
14775;DHT22;7479;47.042;15.160;2023-05-31T18:29:29;19.30;99.10
14775;DHT22;7479;47.042;15.160;2023-05-31T18:34:23;19.20;99.80
14775;DHT22;7479;47.042;15.160;2023-05-31T18:39:16;19.10;99.90
14775;DHT22;7479;47.042;15.160;2023-05-31T18:44:09;19.20;99.90
14775;DHT22;7479;47.042;15.160;2023-05-31T18:49:04;19.10;99.90
14775;DHT22;7479;47.042;15.160;2023-05-31T18:53:57;18.80;99.90
14775;DHT22;7479;47.042;15.160;2023-05-31T18:58:51;18.80;99.90
14775;DHT22;7479;47.042;15.160;2023-05-31T19:03:44;18.60;99.90
14775;DHT22;7479;47.042;15.160;2023-05-31T19:08:39;18.50;99.90
14775;DHT22;7479;47.042;15.160;2023-05-31T19:13:33;18.40;99.90
14775;DHT22;7479;47.042;15.160;2023-05-31T19:18:26;18.40;99.90
14775;DHT22;7479;47.042;15.160;2023-05-31T19:23:19;18.30;99.90
14775;DHT22;7479;47.042;15.160;2023-05-31T19:28:14;18.20;99.90
14775;DHT22;7479;47.042;15.160;2023-05-31T19:33:08;18.20;99.90
14775;DHT22;7479;47.042;15.160;2023-05-31T19:38:03;18.20;99.90
14775;DHT22;7479;47.042;15.160;2023-05-31T19:42:57;18.10;99.90
14775;DHT22;7479;47.042;15.160;2023-05-31T19:47:52;18.00;99.90
14775;DHT22;7479;47.042;15.160;2023-05-31T19:52:45;17.90;99.90
14775;DHT22;7479;47.042;15.160;2023-05-31T19:57:40;17.90;99.90
14775;DHT22;7479;47.042;15.160;2023-05-31T20:02:33;17.80;99.90
14775;DHT22;7479;47.042;15.160;2023-05-31T20:07:28;17.70;99.90
14775;DHT22;7479;47.042;15.160;2023-05-31T20:12:22;17.70;99.90
14775;DHT22;7479;47.042;15.160;2023-05-31T20:17:15;17.60;99.90
14775;DHT22;7479;47.042;15.160;2023-05-31T20:22:09;17.50;99.90
14775;DHT22;7479;47.042;15.160;2023-05-31T20:27:04;17.40;99.90
14775;DHT22;7479;47.042;15.160;2023-05-31T20:31:58;17.40;99.90
14775;DHT22;7479;47.042;15.160;2023-05-31T20:36:51;17.30;99.90
14775;DHT22;7479;47.042;15.160;2023-05-31T20:41:45;17.20;99.90
14775;DHT22;7479;47.042;15.160;2023-05-31T20:46:40;17.10;99.90
14775;DHT22;7479;47.042;15.160;2023-05-31T20:51:33;17.00;99.90
14775;DHT22;7479;47.042;15.160;2023-05-31T20:56:27;17.00;99.90
14775;DHT22;7479;47.042;15.160;2023-05-31T21:01:21;17.00;99.90
14775;DHT22;7479;47.042;15.160;2023-05-31T21:06:16;17.00;99.90
14775;DHT22;7479;47.042;15.160;2023-05-31T21:11:09;17.00;99.90
14775;DHT22;7479;47.042;15.160;2023-05-31T21:16:03;16.80;99.90
14775;DHT22;7479;47.042;15.160;2023-05-31T21:20:56;16.70;99.90
14775;DHT22;7479;47.042;15.160;2023-05-31T21:25:53;16.70;99.90
14775;DHT22;7479;47.042;15.160;2023-05-31T21:30:46;16.80;99.90
14775;DHT22;7479;47.042;15.160;2023-05-31T21:35:40;16.80;99.90
14775;DHT22;7479;47.042;15.160;2023-05-31T21:40:33;16.80;99.90
14775;DHT22;7479;47.042;15.160;2023-05-31T21:45:28;16.80;99.90
14775;DHT22;7479;47.042;15.160;2023-05-31T21:50:21;16.80;99.90
